< Typhoon 198722 1987 Season Typhoon 198801 >
Typhoon 198723 (PHYLLIS)
General InformationTrack Information on Google MapsDetailed Wind InformationList of All Images || Disaster Info.ResourceGoogle EarthGE AnimationAtom FeedGeoJSON
Detalied Best Track (Time Zone = UTC)
Year Month Day Hour Lat. Long. Pressure (hPa) Wind (kt) Class Image Chart
1987 12 11 00 8.3 144.6 1008 0 2 Image Chart
1987 12 11 06 8.7 143.4 1006 0 2 Image Chart
1987 12 11 12 9.5 142.4 1006 0 2 Image Chart
1987 12 11 18 10.2 141.6 1004 0 2 Image Chart
1987 12 12 00 10.9 141.2 1004 0 2 Image Chart
1987 12 12 06 11.7 140.9 1000 35 3 Image Chart
1987 12 12 12 12.5 140.4 998 40 3 Image Chart
1987 12 12 18 13.0 140.2 996 40 3 Image Chart
1987 12 13 00 13.5 140.1 994 40 3 Image Chart
1987 12 13 06 13.7 140.1 994 45 3 Image Chart
1987 12 13 12 13.3 139.2 994 45 3 Image Chart
1987 12 13 18 12.8 138.3 994 45 3 Image Chart
1987 12 14 00 12.4 137.1 992 45 3 Image Chart
1987 12 14 06 12.3 135.8 990 45 3 Image Chart
1987 12 14 12 11.9 134.0 985 50 4 Image Chart
1987 12 14 18 11.6 132.4 975 60 4 Image Chart
1987 12 15 00 11.4 130.7 965 70 5 Image Chart
1987 12 15 06 11.4 129.1 965 70 5 Image Chart
1987 12 15 12 11.5 127.4 960 75 5 Image Chart
1987 12 15 18 11.6 126.1 960 75 5 Image Chart
1987 12 16 00 11.7 125.1 970 70 5 Image Chart
1987 12 16 06 12.2 123.9 975 65 5 Image Chart
1987 12 16 12 12.5 123.4 985 55 4 Image Chart
1987 12 16 18 12.7 122.9 980 55 4 Image Chart
1987 12 17 00 12.9 122.3 975 60 4 Image Chart
1987 12 17 06 12.9 121.6 970 65 5 Image Chart
1987 12 17 12 12.8 120.8 975 65 5 Image Chart
1987 12 17 18 12.4 120.2 980 60 4 Image Chart
1987 12 18 00 11.7 119.2 985 50 4 Image Chart
1987 12 18 06 11.8 118.3 985 50 4 Image Chart
1987 12 18 12 12.3 117.3 985 50 4 Image Chart
1987 12 18 18 12.6 116.4 985 50 4 Image Chart
1987 12 19 00 12.8 115.7 990 50 4 Image Chart
1987 12 19 06 13.0 115.0 992 45 3 Image Chart
1987 12 19 12 13.0 114.2 996 40 3 Image Chart
1987 12 19 18 12.3 113.6 1000 35 3 Image Chart
1987 12 20 00 11.7 113.0 1004 0 2 Image Chart
1987 12 20 06 10.9 112.1 1008 0 2 Image Chart
1987 12 20 12 10.0 111.5 1008 0 2 Image Chart
Japan Meteorological Agency Best Track Data | Correction Date : 1992-10-21
< Typhoon 198722 1987 Season Typhoon 198801 >

Help